createdAt,value
2023-03-16T00:00:46.712Z,69.62
2023-03-16T00:03:19.193Z,69.94
2023-03-16T00:05:47.525Z,70.05
2023-03-16T00:08:16.121Z,70.05
2023-03-16T00:10:46.914Z,70.22
2023-03-16T00:13:15.376Z,70.09
2023-03-16T00:15:43.330Z,70.25
2023-03-16T00:18:10.976Z,70.30
2023-03-16T00:20:39.999Z,70.34
2023-03-16T00:23:07.651Z,70.27
2023-03-16T00:25:35.299Z,70.46
2023-03-16T00:28:03.689Z,70.57
2023-03-16T00:30:31.461Z,69.96
2023-03-16T00:32:59.305Z,70.27
2023-03-16T00:35:27.011Z,70.36
2023-03-16T00:37:57.422Z,70.54
2023-03-16T00:40:25.375Z,70.49
2023-03-16T00:42:55.064Z,70.50
2023-03-16T00:45:23.415Z,70.48
2023-03-16T00:47:54.165Z,70.64
2023-03-16T00:50:22.607Z,70.64
2023-03-16T00:52:53.629Z,70.78
2023-03-16T00:55:22.829Z,70.72
2023-03-16T00:57:50.454Z,70.34
2023-03-16T01:00:20.846Z,70.40
2023-03-16T01:02:48.687Z,69.94
2023-03-16T01:05:16.452Z,69.83
2023-03-16T01:07:45.323Z,70.02
2023-03-16T01:10:14.145Z,69.26
2023-03-16T01:12:45.499Z,69.45
2023-03-16T01:15:13.427Z,69.96
2023-03-16T01:17:41.957Z,70.29
2023-03-16T01:20:13.187Z,70.51
2023-03-16T01:22:42.244Z,70.78
2023-03-16T01:25:12.461Z,70.98
2023-03-16T01:27:40.149Z,71.00
2023-03-16T01:30:12.431Z,71.09
2023-03-16T01:32:40.505Z,71.27
2023-03-16T01:35:09.248Z,71.11
2023-03-16T01:37:37.276Z,70.45
2023-03-16T01:40:06.987Z,69.93
2023-03-16T01:42:45.549Z,70.09
2023-03-16T01:45:46.578Z,70.47
2023-03-16T01:48:15.766Z,70.62
2023-03-16T01:50:43.580Z,70.75
2023-03-16T01:53:11.687Z,70.65
2023-03-16T01:55:39.609Z,70.26
2023-03-16T01:58:07.369Z,70.47
2023-03-16T02:00:35.157Z,70.92
2023-03-16T02:03:08.873Z,70.93
2023-03-16T02:05:45.592Z,71.09
2023-03-16T02:08:13.430Z,71.08
2023-03-16T02:10:42.020Z,70.63
2023-03-16T02:13:09.826Z,69.44
2023-03-16T02:15:37.695Z,68.47
2023-03-16T02:18:07.754Z,68.08
2023-03-16T02:20:43.554Z,69.30
2023-03-16T02:23:18.400Z,70.15
2023-03-16T02:25:54.139Z,70.68
2023-03-16T02:28:29.173Z,70.56
2023-03-16T02:30:59.107Z,70.22
2023-03-16T02:33:27.406Z,69.65
2023-03-16T02:35:55.221Z,69.01
2023-03-16T02:38:23.063Z,69.35
2023-03-16T02:40:58.782Z,69.98
2023-03-16T02:43:29.998Z,70.44
2023-03-16T02:46:03.275Z,70.79
2023-03-16T02:48:34.287Z,70.96
2023-03-16T02:51:01.922Z,71.36
2023-03-16T02:53:29.583Z,71.34
2023-03-16T02:55:57.324Z,71.77
2023-03-16T02:58:25.031Z,70.55
2023-03-16T03:00:53.204Z,70.23
2023-03-16T03:03:22.615Z,70.31
2023-03-16T03:05:50.698Z,70.84
2023-03-16T03:08:20.318Z,71.29
2023-03-16T03:10:47.950Z,71.15
2023-03-16T03:13:15.645Z,70.99
2023-03-16T03:15:43.396Z,71.24
2023-03-16T03:18:11.087Z,71.63
2023-03-16T03:20:40.124Z,71.71
2023-03-16T03:23:07.798Z,72.14
2023-03-16T03:25:35.467Z,72.34
2023-03-16T03:28:05.437Z,71.70
2023-03-16T03:30:33.544Z,71.80
2023-03-16T03:33:01.558Z,71.08
2023-03-16T03:35:29.417Z,71.43
2023-03-16T03:37:58.442Z,71.83
2023-03-16T03:40:26.484Z,71.76
2023-03-16T03:42:54.260Z,71.99
2023-03-16T03:45:21.907Z,72.18
2023-03-16T03:47:49.650Z,72.23
2023-03-16T03:50:17.994Z,72.33
2023-03-16T03:52:45.830Z,72.88
2023-03-16T03:55:14.978Z,72.83
2023-03-16T03:57:42.584Z,72.49
2023-03-16T04:00:11.733Z,72.48
2023-03-16T04:02:39.746Z,71.97
2023-03-16T04:05:08.621Z,72.28
2023-03-16T04:07:36.346Z,72.19
2023-03-16T04:10:04.321Z,72.36
2023-03-16T04:12:33.379Z,72.54
2023-03-16T04:15:01.173Z,72.97
2023-03-16T04:17:28.857Z,72.87
2023-03-16T04:19:56.491Z,72.81
2023-03-16T04:22:24.209Z,72.78
2023-03-16T04:24:54.630Z,73.02
2023-03-16T04:27:22.267Z,73.31
2023-03-16T04:29:55.749Z,73.10
2023-03-16T04:32:26.336Z,72.77
2023-03-16T04:34:55.933Z,72.66
2023-03-16T04:37:23.755Z,73.17
2023-03-16T04:39:51.539Z,73.40
2023-03-16T04:42:19.607Z,73.46
2023-03-16T04:44:48.073Z,73.75
2023-03-16T04:47:17.997Z,73.41
2023-03-16T04:49:46.766Z,73.35
2023-03-16T04:52:14.530Z,72.18
2023-03-16T04:54:42.254Z,70.76
2023-03-16T04:57:09.979Z,70.17
2023-03-16T04:59:37.651Z,70.50
2023-03-16T05:02:05.371Z,70.16
2023-03-16T05:04:34.562Z,69.99
2023-03-16T05:07:02.228Z,69.95
2023-03-16T05:09:30.049Z,70.71
2023-03-16T05:11:57.821Z,71.56
2023-03-16T05:14:25.556Z,72.41
2023-03-16T05:16:53.619Z,72.59
2023-03-16T05:19:21.350Z,72.64
2023-03-16T05:21:50.482Z,72.94
2023-03-16T05:24:18.181Z,72.49
2023-03-16T05:26:46.014Z,72.84
2023-03-16T05:29:13.586Z,72.60
2023-03-16T05:31:41.320Z,72.65
2023-03-16T05:34:09.221Z,72.60
2023-03-16T05:36:37.008Z,71.99
2023-03-16T05:39:08.353Z,71.49
2023-03-16T05:41:36.283Z,71.60
2023-03-16T05:44:05.046Z,71.72
2023-03-16T05:46:33.341Z,72.80
2023-03-16T05:49:01.212Z,72.68
2023-03-16T05:51:29.009Z,72.76
2023-03-16T05:53:57.554Z,72.38
2023-03-16T05:56:27.752Z,72.55
2023-03-16T05:58:56.810Z,72.72
2023-03-16T06:01:25.250Z,72.43
2023-03-16T06:03:53.707Z,72.28
2023-03-16T06:06:23.452Z,71.31
2023-03-16T06:08:51.141Z,72.14
2023-03-16T06:11:18.823Z,72.48
2023-03-16T06:13:47.819Z,72.99
2023-03-16T06:16:16.882Z,73.36
2023-03-16T06:18:44.703Z,73.53
2023-03-16T06:21:12.375Z,73.86
2023-03-16T06:23:40.039Z,73.59
2023-03-16T06:26:07.844Z,73.49
2023-03-16T06:28:35.498Z,73.17
2023-03-16T06:31:04.609Z,72.66
2023-03-16T06:33:32.288Z,73.08
2023-03-16T06:36:00.068Z,72.89
2023-03-16T06:38:28.086Z,72.88
2023-03-16T06:40:55.957Z,72.82
2023-03-16T06:43:23.763Z,72.62
2023-03-16T06:45:51.553Z,72.71
2023-03-16T06:48:20.666Z,73.10
2023-03-16T06:50:49.024Z,73.34
2023-03-16T06:53:16.824Z,73.26
2023-03-16T06:55:44.932Z,72.34
2023-03-16T06:58:12.978Z,71.86
2023-03-16T07:00:40.797Z,71.33
2023-03-16T07:03:08.606Z,71.07
2023-03-16T07:05:38.096Z,71.74
2023-03-16T07:08:06.130Z,70.86
2023-03-16T07:10:34.432Z,70.92
2023-03-16T07:13:02.287Z,70.92
2023-03-16T07:15:30.007Z,71.02
2023-03-16T07:17:58.092Z,71.47
2023-03-16T07:20:27.376Z,71.45
2023-03-16T07:22:58.389Z,71.42
2023-03-16T07:25:26.428Z,70.96
2023-03-16T07:27:54.149Z,70.79
2023-03-16T07:30:22.007Z,70.85
2023-03-16T07:32:49.956Z,71.12
2023-03-16T07:35:18.419Z,71.05
2023-03-16T07:37:47.317Z,70.99
2023-03-16T07:40:19.828Z,70.48
2023-03-16T07:42:47.995Z,70.31
2023-03-16T07:45:18.951Z,69.63
2023-03-16T07:47:47.926Z,68.92
2023-03-16T07:50:16.984Z,69.03
2023-03-16T07:52:46.176Z,68.19
2023-03-16T07:55:16.745Z,68.65
2023-03-16T07:57:47.931Z,68.60
2023-03-16T08:00:17.423Z,68.35
2023-03-16T08:02:45.446Z,67.73
2023-03-16T08:05:16.114Z,67.72
2023-03-16T08:07:43.942Z,67.76
2023-03-16T08:10:12.628Z,66.66
2023-03-16T08:12:43.378Z,66.35
2023-03-16T08:15:12.704Z,66.15
2023-03-16T08:17:41.778Z,65.62
2023-03-16T08:20:14.267Z,65.54
2023-03-16T08:22:46.799Z,65.11
2023-03-16T08:25:18.186Z,63.88
2023-03-16T08:27:48.711Z,61.96
2023-03-16T08:30:17.912Z,58.53
2023-03-16T08:32:45.741Z,50.86
2023-03-16T08:35:16.563Z,46.62
2023-03-16T08:37:46.312Z,45.22
2023-03-16T08:40:16.339Z,45.59
2023-03-16T08:42:45.069Z,45.85
2023-03-16T08:45:14.860Z,45.97
2023-03-16T08:47:43.034Z,46.20
2023-03-16T08:50:12.983Z,47.49
2023-03-16T08:52:42.830Z,46.28
2023-03-16T08:55:11.746Z,45.32
2023-03-16T08:57:39.968Z,44.73
2023-03-16T09:00:13.510Z,43.73
2023-03-16T09:02:43.274Z,41.53
2023-03-16T09:05:12.586Z,39.33
2023-03-16T09:07:40.641Z,38.50
2023-03-16T09:10:12.800Z,36.79
2023-03-16T09:12:40.968Z,34.32
2023-03-16T09:15:13.963Z,30.69
2023-03-16T09:17:45.211Z,30.08
2023-03-16T09:20:22.496Z,29.37
2023-03-16T09:22:54.611Z,27.74
2023-03-16T09:25:22.448Z,27.23
2023-03-16T09:27:50.970Z,27.26
2023-03-16T09:30:20.935Z,26.95
2023-03-16T09:32:50.960Z,27.88
2023-03-16T09:35:19.520Z,29.00
2023-03-16T09:38:04.828Z,30.41
2023-03-16T09:40:34.334Z,31.51
2023-03-16T09:43:17.416Z,32.33
2023-03-16T09:45:55.253Z,32.32
2023-03-16T09:48:26.036Z,32.93
2023-03-16T09:50:56.013Z,31.78
2023-03-16T09:53:28.854Z,30.32
2023-03-16T09:56:01.891Z,27.98
2023-03-16T09:58:47.495Z,26.79
2023-03-16T10:02:10.459Z,25.50
2023-03-16T10:05:01.630Z,25.26
2023-03-16T10:07:44.497Z,25.28
2023-03-16T10:13:21.202Z,25.42
2023-03-16T10:15:59.810Z,23.48
2023-03-16T10:18:33.100Z,23.34
2023-03-16T10:21:04.276Z,23.92
2023-03-16T10:23:35.507Z,24.26
2023-03-16T10:26:07.462Z,24.99
2023-03-16T10:28:35.275Z,24.58
2023-03-16T10:31:04.727Z,24.65
2023-03-16T10:33:34.280Z,23.84
2023-03-16T10:36:11.475Z,23.04
2023-03-16T10:38:46.688Z,23.33
2023-03-16T10:41:25.514Z,24.28
2023-03-16T10:43:57.451Z,24.67
2023-03-16T10:46:27.841Z,23.83
2023-03-16T10:49:00.156Z,23.68
2023-03-16T10:51:31.653Z,25.14
2023-03-16T10:54:10.909Z,26.65
2023-03-16T10:56:38.677Z,27.48
2023-03-16T10:59:17.756Z,26.54
2023-03-16T11:01:47.384Z,27.99
2023-03-16T11:04:18.152Z,28.98
2023-03-16T11:06:55.604Z,30.56
2023-03-16T11:09:27.830Z,30.46
2023-03-16T11:11:55.491Z,31.79
2023-03-16T11:14:28.411Z,32.76
2023-03-16T11:17:04.401Z,32.50
2023-03-16T11:19:35.767Z,31.61
2023-03-16T11:22:11.886Z,31.78
2023-03-16T11:24:48.090Z,33.27
2023-03-16T11:27:23.946Z,33.66
2023-03-16T11:30:05.412Z,34.78
2023-03-16T11:32:37.087Z,36.28
2023-03-16T11:35:14.171Z,36.86
2023-03-16T11:37:55.259Z,38.27
2023-03-16T11:40:38.477Z,38.96
2023-03-16T11:43:20.880Z,39.66
2023-03-16T11:45:58.207Z,40.20
2023-03-16T11:48:36.860Z,41.30
2023-03-16T11:51:09.560Z,40.99
2023-03-16T11:53:52.619Z,40.38
2023-03-16T11:56:30.106Z,38.72
2023-03-16T11:59:30.303Z,37.64
2023-03-16T12:02:21.984Z,35.46
2023-03-16T12:04:59.680Z,34.31
2023-03-16T12:07:44.454Z,33.42
2023-03-16T12:10:26.097Z,31.87
2023-03-16T12:13:33.174Z,32.29
2023-03-16T12:16:05.674Z,32.35
2023-03-16T12:18:45.286Z,33.87
2023-03-16T12:21:17.474Z,34.52
2023-03-16T12:23:52.592Z,35.19
2023-03-16T12:26:29.195Z,35.05
2023-03-16T12:29:00.191Z,35.21
2023-03-16T12:31:38.652Z,35.62
2023-03-16T12:34:14.575Z,34.68
2023-03-16T12:37:12.942Z,35.81
2023-03-16T12:39:55.487Z,35.64
2023-03-16T12:42:50.552Z,34.86
2023-03-16T12:45:30.136Z,34.24
2023-03-16T12:48:06.271Z,31.79
2023-03-16T12:50:34.341Z,31.59
2023-03-16T12:53:02.052Z,32.19
2023-03-16T12:55:44.964Z,32.12
2023-03-16T12:58:14.027Z,32.30
2023-03-16T13:00:42.883Z,31.90
2023-03-16T13:03:15.990Z,31.78
2023-03-16T13:05:47.589Z,33.21
2023-03-16T13:08:22.806Z,34.38
2023-03-16T13:11:05.047Z,34.41
2023-03-16T13:13:35.682Z,34.61
2023-03-16T13:16:06.975Z,35.86
2023-03-16T13:18:38.052Z,36.32
2023-03-16T13:21:17.053Z,36.22
2023-03-16T13:23:58.803Z,37.13
2023-03-16T13:26:40.221Z,37.43
2023-03-16T13:29:23.077Z,37.71
2023-03-16T13:31:51.901Z,37.17
2023-03-16T13:34:24.923Z,38.18
2023-03-16T13:36:57.306Z,39.02
2023-03-16T13:39:28.376Z,38.84
2023-03-16T13:42:01.742Z,38.71
2023-03-16T13:44:31.707Z,38.89
2023-03-16T13:47:05.036Z,39.78
2023-03-16T13:49:32.960Z,39.22
2023-03-16T13:52:03.486Z,39.11
2023-03-16T13:54:31.824Z,38.66
2023-03-16T13:57:02.964Z,39.27
2023-03-16T13:59:32.180Z,39.40
2023-03-16T14:02:01.805Z,39.83
2023-03-16T14:04:32.814Z,38.99
2023-03-16T14:07:01.973Z,38.96
2023-03-16T14:09:31.953Z,39.09
2023-03-16T14:12:00.006Z,38.69
2023-03-16T14:14:30.746Z,38.78
2023-03-16T14:17:05.455Z,38.53
2023-03-16T14:19:42.318Z,39.05
2023-03-16T14:22:16.358Z,39.28
2023-03-16T14:24:46.253Z,39.41
2023-03-16T14:27:21.889Z,39.55
2023-03-16T14:29:55.441Z,39.38
2023-03-16T14:32:28.547Z,39.41
2023-03-16T14:35:12.913Z,39.17
2023-03-16T14:37:41.844Z,39.12
2023-03-16T14:40:23.552Z,39.49
2023-03-16T14:42:52.130Z,39.31
2023-03-16T14:45:21.354Z,40.04
2023-03-16T14:47:53.700Z,39.65
2023-03-16T14:50:26.207Z,39.23
2023-03-16T14:52:57.404Z,39.40
2023-03-16T14:55:25.752Z,39.39
2023-03-16T14:57:53.995Z,39.72
2023-03-16T15:00:22.860Z,40.08
2023-03-16T15:03:03.035Z,39.83
2023-03-16T15:05:36.530Z,39.45
2023-03-16T15:08:06.484Z,39.36
2023-03-16T15:10:36.078Z,39.58
2023-03-16T15:13:13.260Z,39.91
2023-03-16T15:15:42.468Z,40.14
2023-03-16T15:18:12.034Z,39.84
2023-03-16T15:20:43.712Z,40.74
2023-03-16T15:23:15.838Z,40.63
2023-03-16T15:25:45.096Z,40.65
2023-03-16T15:28:15.996Z,39.69
2023-03-16T15:30:44.644Z,40.30
2023-03-16T15:33:14.125Z,40.43
2023-03-16T15:35:42.914Z,40.86
2023-03-16T15:38:15.684Z,41.09
2023-03-16T15:40:45.666Z,40.96
2023-03-16T15:43:14.301Z,41.21
2023-03-16T15:45:43.504Z,41.52
2023-03-16T15:48:11.716Z,41.48
2023-03-16T15:50:43.121Z,41.71
2023-03-16T15:53:29.617Z,41.52
2023-03-16T15:56:02.885Z,41.73
2023-03-16T15:58:32.574Z,41.51
2023-03-16T16:01:02.685Z,41.66
2023-03-16T16:03:30.950Z,41.63
2023-03-16T16:06:00.587Z,42.38
2023-03-16T16:08:28.252Z,41.78
2023-03-16T16:10:57.310Z,41.77
2023-03-16T16:13:43.492Z,42.12
2023-03-16T16:16:14.444Z,41.91
2023-03-16T16:18:42.732Z,41.83
2023-03-16T16:21:17.158Z,41.69
2023-03-16T16:23:45.026Z,41.96
2023-03-16T16:26:27.866Z,42.37
2023-03-16T16:28:59.652Z,42.47
2023-03-16T16:31:30.198Z,42.43
2023-03-16T16:33:59.001Z,42.59
2023-03-16T16:36:32.365Z,42.58
2023-03-16T16:39:00.470Z,42.25
2023-03-16T16:41:30.945Z,42.94
2023-03-16T16:44:05.087Z,42.77
2023-03-16T16:46:36.989Z,42.86
2023-03-16T16:49:09.059Z,42.35
2023-03-16T16:51:38.280Z,42.19
2023-03-16T16:54:16.435Z,42.57
2023-03-16T16:56:45.303Z,43.06
2023-03-16T16:59:18.174Z,42.91
2023-03-16T17:01:46.540Z,42.44
2023-03-16T17:04:17.367Z,42.66
2023-03-16T17:06:48.124Z,42.59
2023-03-16T17:09:16.207Z,42.68
2023-03-16T17:11:45.998Z,43.18
2023-03-16T17:14:18.684Z,42.98
2023-03-16T17:16:48.529Z,43.04
2023-03-16T17:19:21.787Z,43.35
2023-03-16T17:21:51.372Z,43.45
2023-03-16T17:24:19.344Z,43.81
2023-03-16T17:26:49.376Z,43.76
2023-03-16T17:29:22.553Z,43.49
2023-03-16T17:31:51.367Z,43.91
2023-03-16T17:34:21.383Z,44.23
2023-03-16T17:36:51.194Z,44.63
2023-03-16T17:39:21.099Z,45.05
2023-03-16T17:41:50.204Z,44.99
2023-03-16T17:44:20.218Z,45.78
2023-03-16T17:46:49.183Z,45.50
2023-03-16T17:49:19.964Z,46.50
2023-03-16T17:51:48.245Z,46.04
2023-03-16T17:54:17.531Z,46.19
2023-03-16T17:56:48.060Z,46.23
2023-03-16T17:59:19.072Z,47.65
2023-03-16T18:01:47.606Z,48.18
2023-03-16T18:04:19.760Z,48.15
2023-03-16T18:06:48.134Z,48.21
2023-03-16T18:09:18.763Z,48.87
2023-03-16T18:11:49.981Z,49.14
2023-03-16T18:14:25.478Z,48.78
2023-03-16T18:16:54.489Z,48.80
2023-03-16T18:19:25.429Z,49.12
2023-03-16T18:21:53.684Z,49.28
2023-03-16T18:24:26.932Z,48.96
2023-03-16T18:26:55.212Z,49.50
2023-03-16T18:29:24.583Z,49.82
2023-03-16T18:31:56.930Z,49.35
2023-03-16T18:34:27.413Z,49.50
2023-03-16T18:37:00.027Z,49.64
2023-03-16T18:39:29.330Z,49.82
2023-03-16T18:41:57.199Z,49.40
2023-03-16T18:44:26.874Z,49.16
2023-03-16T18:47:02.062Z,49.35
2023-03-16T18:49:34.001Z,49.82
2023-03-16T18:52:01.918Z,50.03
2023-03-16T18:54:35.190Z,50.94
2023-03-16T18:57:04.572Z,50.73
2023-03-16T18:59:32.713Z,50.21
2023-03-16T19:02:01.117Z,50.20
2023-03-16T19:04:32.677Z,50.37
2023-03-16T19:07:00.799Z,50.66
2023-03-16T19:09:33.203Z,50.71
2023-03-16T19:12:03.097Z,50.97
2023-03-16T19:14:33.400Z,51.19
2023-03-16T19:17:01.194Z,51.18
2023-03-16T19:19:28.986Z,51.35
2023-03-16T19:21:59.433Z,51.49
2023-03-16T19:24:29.639Z,51.60
2023-03-16T19:26:59.228Z,51.77
2023-03-16T19:29:32.265Z,52.17
2023-03-16T19:32:00.737Z,52.61
2023-03-16T19:34:29.079Z,53.29
2023-03-16T19:36:56.955Z,53.44
2023-03-16T19:39:25.582Z,53.24
2023-03-16T19:41:59.027Z,54.38
2023-03-16T19:44:29.200Z,54.07
2023-03-16T19:46:59.324Z,54.55
2023-03-16T19:49:29.235Z,54.45
2023-03-16T19:51:57.842Z,54.41
2023-03-16T19:54:27.612Z,54.65
2023-03-16T19:56:59.569Z,54.35
2023-03-16T19:59:32.361Z,54.17
2023-03-16T20:02:00.304Z,54.33
2023-03-16T20:04:28.679Z,54.73
2023-03-16T20:06:56.880Z,55.24
2023-03-16T20:09:24.897Z,55.73
2023-03-16T20:11:52.696Z,55.79
2023-03-16T20:14:27.831Z,55.83
2023-03-16T20:16:55.974Z,55.58
2023-03-16T20:19:24.536Z,55.88
2023-03-16T20:21:52.366Z,56.32
2023-03-16T20:24:22.202Z,56.64
2023-03-16T20:26:52.332Z,57.36
2023-03-16T20:29:27.924Z,57.40
2023-03-16T20:31:56.147Z,57.30
2023-03-16T20:34:25.859Z,57.33
2023-03-16T20:36:53.692Z,57.53
2023-03-16T20:39:21.704Z,57.76
2023-03-16T20:41:50.483Z,58.03
2023-03-16T20:44:23.589Z,57.91
2023-03-16T20:46:51.256Z,58.11
2023-03-16T20:49:31.049Z,58.50
2023-03-16T20:51:59.273Z,58.72
2023-03-16T20:54:27.222Z,58.83
2023-03-16T20:56:55.141Z,58.67
2023-03-16T20:59:27.418Z,58.75
2023-03-16T21:01:55.717Z,58.84
2023-03-16T21:04:27.347Z,58.82
2023-03-16T21:06:57.042Z,58.96
2023-03-16T21:09:24.897Z,59.43
2023-03-16T21:11:53.910Z,59.38
2023-03-16T21:14:24.918Z,59.30
2023-03-16T21:16:54.183Z,59.68
2023-03-16T21:19:24.220Z,59.98
2023-03-16T21:21:52.305Z,59.73
2023-03-16T21:24:20.028Z,60.24
2023-03-16T21:26:48.415Z,59.93
2023-03-16T21:29:21.302Z,59.97
2023-03-16T21:31:50.546Z,60.28
2023-03-16T21:34:26.173Z,60.53
2023-03-16T21:36:53.942Z,60.60
2023-03-16T21:39:25.075Z,60.22
2023-03-16T21:41:54.455Z,60.14
2023-03-16T21:44:22.778Z,60.17
2023-03-16T21:46:51.907Z,60.27
2023-03-16T21:49:19.814Z,59.78
2023-03-16T21:51:47.738Z,60.26
2023-03-16T21:54:16.391Z,60.35
2023-03-16T21:56:44.456Z,59.73
2023-03-16T21:59:13.026Z,59.84
2023-03-16T22:01:58.292Z,59.29
2023-03-16T22:04:29.949Z,59.23
2023-03-16T22:06:57.668Z,59.57
2023-03-16T22:09:30.020Z,59.88
2023-03-16T22:11:58.165Z,59.82
2023-03-16T22:14:27.148Z,60.20
2023-03-16T22:16:55.533Z,60.37
2023-03-16T22:19:23.370Z,59.86
2023-03-16T22:21:53.056Z,59.80
2023-03-16T22:24:23.762Z,60.03
2023-03-16T22:26:52.143Z,60.40
2023-03-16T22:29:25.240Z,59.56
2023-03-16T22:31:55.766Z,59.61
2023-03-16T22:34:30.645Z,59.67
2023-03-16T22:37:01.644Z,60.19
2023-03-16T22:39:32.772Z,60.66
2023-03-16T22:42:01.150Z,60.46
2023-03-16T22:44:29.051Z,60.61
2023-03-16T22:46:57.010Z,60.76
2023-03-16T22:49:28.478Z,61.00
2023-03-16T22:51:59.341Z,60.92
2023-03-16T22:54:29.569Z,59.87
2023-03-16T22:56:57.837Z,59.50
2023-03-16T22:59:28.342Z,60.03
2023-03-16T23:01:56.557Z,60.53
2023-03-16T23:04:29.886Z,60.84
2023-03-16T23:06:59.897Z,60.48
2023-03-16T23:09:27.624Z,61.20
2023-03-16T23:11:57.576Z,61.61
2023-03-16T23:14:28.416Z,61.38
2023-03-16T23:16:56.702Z,61.20
2023-03-16T23:19:27.166Z,60.95
2023-03-16T23:21:57.418Z,60.65
2023-03-16T23:24:27.063Z,60.87
2023-03-16T23:26:55.991Z,59.91
2023-03-16T23:29:24.642Z,59.83
2023-03-16T23:31:53.593Z,59.85
2023-03-16T23:34:22.985Z,59.97
2023-03-16T23:36:51.328Z,60.05
2023-03-16T23:39:19.493Z,60.15
2023-03-16T23:41:50.452Z,60.03
2023-03-16T23:44:20.248Z,59.94
2023-03-16T23:46:49.027Z,60.68
2023-03-16T23:49:21.580Z,60.52
2023-03-16T23:51:49.736Z,60.29
2023-03-16T23:54:20.894Z,60.88
2023-03-16T23:56:52.130Z,60.57
2023-03-16T23:59:20.910Z,60.08
